createdAt,value
2019-03-29T00:01:14.001Z,99761.12
2019-03-29T00:03:46.667Z,99759.77
2019-03-29T00:06:19.776Z,99768.28
2019-03-29T00:08:52.674Z,99767.34
2019-03-29T00:11:25.241Z,99777.48
2019-03-29T00:13:57.708Z,99765.53
2019-03-29T00:16:31.150Z,99768.78
2019-03-29T00:19:03.766Z,99775.47
2019-03-29T00:21:39.726Z,99765.98
2019-03-29T00:24:12.416Z,99765.16
2019-03-29T00:26:50.869Z,99773.76
2019-03-29T00:29:23.752Z,99765.55
2019-03-29T00:31:56.692Z,99773.61
2019-03-29T00:34:29.298Z,99775.34
2019-03-29T00:37:11.122Z,99769.38
2019-03-29T00:39:43.837Z,99769.08
2019-03-29T00:42:23.041Z,99770.58
2019-03-29T00:44:55.917Z,99765.11
2019-03-29T00:47:28.406Z,99762.59
2019-03-29T00:50:01.055Z,99757.06
2019-03-29T00:52:43.007Z,99750.59
2019-03-29T00:55:15.845Z,99746.77
2019-03-29T00:57:48.403Z,99748.86
2019-03-29T01:00:21.148Z,99745.23
2019-03-29T01:03:04.293Z,99750.35
2019-03-29T01:05:36.833Z,99745.52
2019-03-29T01:08:10.542Z,99747.45
2019-03-29T01:10:43.524Z,99742.83
2019-03-29T01:13:23.296Z,99747.00
2019-03-29T01:15:55.648Z,99748.34
2019-03-29T01:18:31.324Z,99747.27
2019-03-29T01:21:03.777Z,99749.70
2019-03-29T01:23:45.285Z,99746.31
2019-03-29T01:26:17.894Z,99741.28
2019-03-29T01:28:53.892Z,99742.87
2019-03-29T01:31:27.914Z,99747.27
2019-03-29T01:34:03.542Z,99747.17
2019-03-29T01:36:36.924Z,99743.97
2019-03-29T01:39:18.199Z,99750.35
2019-03-29T01:41:50.743Z,99745.28
2019-03-29T01:44:23.280Z,99753.61
2019-03-29T01:46:55.908Z,99755.35
2019-03-29T01:49:36.176Z,99768.58
2019-03-29T01:52:09.018Z,99759.72
2019-03-29T01:54:41.466Z,99769.48
2019-03-29T01:57:14.029Z,99765.89
2019-03-29T01:59:49.330Z,99768.38
2019-03-29T02:02:21.886Z,99766.57
2019-03-29T02:05:05.812Z,99762.09
2019-03-29T02:07:38.474Z,99769.27
2019-03-29T02:10:12.665Z,99770.95
2019-03-29T02:12:45.353Z,99774.75
2019-03-29T02:15:21.154Z,99780.61
2019-03-29T02:17:54.153Z,99780.31
2019-03-29T02:20:34.602Z,99779.22
2019-03-29T02:23:07.643Z,99774.89
2019-03-29T02:25:47.985Z,99772.52
2019-03-29T02:28:20.425Z,99774.31
2019-03-29T02:31:02.546Z,99773.64
2019-03-29T02:33:35.216Z,99780.09
2019-03-29T02:36:10.570Z,99783.22
2019-03-29T02:38:55.295Z,99781.38
2019-03-29T02:41:18.972Z,99778.98
2019-03-29T02:43:51.939Z,99778.88
2019-03-29T02:46:25.695Z,99774.29
2019-03-29T02:48:58.753Z,99775.66
2019-03-29T02:51:40.825Z,99780.73
2019-03-29T02:54:13.651Z,99781.47
2019-03-29T02:56:48.873Z,99779.32
2019-03-29T02:59:21.406Z,99783.43
2019-03-29T03:01:54.045Z,99783.75
2019-03-29T03:04:27.026Z,99787.72
2019-03-29T03:07:11.826Z,99791.69
2019-03-29T03:09:44.392Z,99796.61
2019-03-29T03:12:20.092Z,99802.09
2019-03-29T03:14:52.726Z,99798.98
2019-03-29T03:17:25.284Z,99802.89
2019-03-29T03:19:57.749Z,99807.17
2019-03-29T03:22:32.780Z,99804.17
2019-03-29T03:25:05.401Z,99811.88
2019-03-29T03:27:42.392Z,99805.05
2019-03-29T03:30:15.398Z,99799.39
2019-03-29T03:32:54.209Z,99806.48
2019-03-29T03:35:26.891Z,99811.21
2019-03-29T03:38:05.525Z,99812.31
2019-03-29T03:40:38.181Z,99809.15
2019-03-29T03:43:19.445Z,99809.28
2019-03-29T03:45:52.110Z,99812.52
2019-03-29T03:48:36.002Z,99820.82
2019-03-29T03:51:09.137Z,99821.05
2019-03-29T03:53:50.350Z,99821.20
2019-03-29T03:56:23.336Z,99818.41
2019-03-29T03:58:56.572Z,99822.51
2019-03-29T04:01:29.497Z,99827.55
2019-03-29T04:04:05.045Z,99823.52
2019-03-29T04:06:37.619Z,99825.07
2019-03-29T04:09:10.919Z,99823.88
2019-03-29T04:11:43.441Z,99825.92
2019-03-29T04:14:18.823Z,99824.65
2019-03-29T04:16:51.249Z,99824.91
2019-03-29T04:19:41.209Z,99826.81
2019-03-29T04:22:13.694Z,99825.33
2019-03-29T04:24:46.165Z,99828.23
2019-03-29T04:27:19.627Z,99835.24
2019-03-29T04:29:55.151Z,99831.98
2019-03-29T04:32:27.712Z,99835.17
2019-03-29T04:35:00.469Z,99827.05
2019-03-29T04:37:32.907Z,99826.70
2019-03-29T04:40:17.703Z,99835.30
2019-03-29T04:42:50.255Z,99837.19
2019-03-29T04:45:28.861Z,99841.74
2019-03-29T04:48:01.353Z,99842.77
2019-03-29T04:50:36.762Z,99834.22
2019-03-29T04:53:09.329Z,99836.87
2019-03-29T04:55:44.846Z,99839.24
2019-03-29T04:58:17.372Z,99835.88
2019-03-29T05:00:58.600Z,99832.56
2019-03-29T05:03:31.233Z,99826.20
2019-03-29T05:06:06.614Z,99828.84
2019-03-29T05:08:39.100Z,99832.92
2019-03-29T05:11:19.834Z,99835.61
2019-03-29T05:13:52.354Z,99840.53
2019-03-29T05:16:28.069Z,99839.31
2019-03-29T05:19:00.529Z,99840.36
2019-03-29T05:21:39.464Z,99839.78
2019-03-29T05:24:11.970Z,99843.47
2019-03-29T05:26:52.793Z,99845.58
2019-03-29T05:29:25.447Z,99848.87
2019-03-29T05:31:58.009Z,99846.77
2019-03-29T05:34:30.591Z,99847.27
2019-03-29T05:37:11.468Z,99860.72
2019-03-29T05:39:43.885Z,99865.05
2019-03-29T05:42:22.348Z,99860.84
2019-03-29T05:44:55.111Z,99859.84
2019-03-29T05:47:30.862Z,99859.91
2019-03-29T05:50:03.462Z,99865.52
2019-03-29T05:52:35.995Z,99862.31
2019-03-29T05:55:08.786Z,99864.13
2019-03-29T05:57:47.484Z,99871.48
2019-03-29T06:00:20.827Z,99868.16
2019-03-29T06:03:04.226Z,99868.19
2019-03-29T06:05:37.000Z,99870.19
2019-03-29T06:08:09.580Z,99872.00
2019-03-29T06:10:49.085Z,99877.66
2019-03-29T06:13:21.171Z,99877.03
2019-03-29T06:15:54.696Z,99879.83
2019-03-29T06:18:30.395Z,99884.88
2019-03-29T06:21:03.859Z,99893.63
2019-03-29T06:23:40.217Z,99897.80
2019-03-29T06:26:12.830Z,99898.12
2019-03-29T06:28:49.579Z,99902.76
2019-03-29T06:31:22.312Z,99899.27
2019-03-29T06:33:58.916Z,99896.58
2019-03-29T06:36:34.096Z,99900.02
2019-03-29T06:39:21.167Z,99905.35
2019-03-29T06:41:53.370Z,99896.93
2019-03-29T06:44:26.297Z,99897.83
2019-03-29T06:46:59.552Z,99903.57
2019-03-29T06:49:32.171Z,99897.86
2019-03-29T06:52:04.574Z,99893.95
2019-03-29T06:54:37.372Z,99890.36
2019-03-29T06:57:15.891Z,99886.41
2019-03-29T06:59:48.621Z,99892.80
2019-03-29T07:02:28.678Z,99897.86
2019-03-29T07:05:01.332Z,99901.54
2019-03-29T07:07:44.429Z,99900.03
2019-03-29T07:10:16.727Z,99906.22
2019-03-29T07:12:50.178Z,99903.15
2019-03-29T07:15:22.968Z,99900.69
2019-03-29T07:17:55.610Z,99899.39
2019-03-29T07:20:28.537Z,99895.66
2019-03-29T07:23:11.830Z,99898.45
2019-03-29T07:25:44.666Z,99894.61
2019-03-29T07:28:19.985Z,99898.14
2019-03-29T07:30:52.704Z,99901.39
2019-03-29T07:33:29.500Z,99895.90
2019-03-29T07:36:02.197Z,99904.61
2019-03-29T07:38:41.118Z,99898.66
2019-03-29T07:41:30.733Z,99899.86
2019-03-29T07:43:51.519Z,99907.45
2019-03-29T07:46:24.356Z,99909.30
2019-03-29T07:48:57.052Z,99910.32
2019-03-29T07:51:29.817Z,99915.52
2019-03-29T07:54:12.651Z,99918.39
2019-03-29T07:56:45.337Z,99913.92
2019-03-29T07:59:18.104Z,99920.69
2019-03-29T08:01:51.041Z,99932.21
2019-03-29T08:04:30.986Z,99933.59
2019-03-29T08:07:03.728Z,99918.94
2019-03-29T08:09:50.024Z,99929.70
2019-03-29T08:12:23.937Z,99924.80
2019-03-29T08:14:56.803Z,99928.30
2019-03-29T08:17:29.489Z,99918.51
2019-03-29T08:20:36.582Z,99914.70
2019-03-29T08:22:36.299Z,99909.69
2019-03-29T08:25:13.107Z,99904.87
2019-03-29T08:27:45.676Z,99907.64
2019-03-29T08:30:21.527Z,99898.70
2019-03-29T08:32:54.248Z,99910.82
2019-03-29T08:35:37.516Z,99908.87
2019-03-29T08:38:10.120Z,99913.62
2019-03-29T08:40:45.215Z,99917.22
2019-03-29T08:43:16.902Z,99918.09
2019-03-29T08:45:57.559Z,99913.59
2019-03-29T08:48:30.049Z,99913.81
2019-03-29T08:51:02.650Z,99922.88
2019-03-29T08:53:35.056Z,99920.72
2019-03-29T08:56:19.214Z,99925.05
2019-03-29T08:58:55.368Z,99923.38
2019-03-29T09:01:28.067Z,99929.90
2019-03-29T09:04:05.702Z,99928.28
2019-03-29T09:06:37.584Z,99935.39
2019-03-29T09:09:12.502Z,99933.19
2019-03-29T09:11:45.349Z,99925.30
2019-03-29T09:14:18.539Z,99939.11
2019-03-29T09:16:54.043Z,99939.20
2019-03-29T09:19:26.700Z,99930.08
2019-03-29T09:22:08.338Z,99922.96
2019-03-29T09:24:42.177Z,99922.61
2019-03-29T09:27:18.279Z,99922.97
2019-03-29T09:29:50.702Z,99929.08
2019-03-29T09:32:27.544Z,99923.56
2019-03-29T09:35:00.709Z,99921.40
2019-03-29T09:37:33.784Z,99917.02
2019-03-29T09:40:08.146Z,99919.37
2019-03-29T09:43:06.834Z,99919.77
2019-03-29T09:45:27.696Z,99901.32
2019-03-29T09:48:00.398Z,99900.03
2019-03-29T09:50:33.141Z,99901.23
2019-03-29T09:53:12.006Z,99894.69
2019-03-29T09:55:45.910Z,99898.56
2019-03-29T09:58:18.433Z,99898.28
2019-03-29T10:00:51.197Z,99888.25
2019-03-29T10:03:27.460Z,99888.50
2019-03-29T10:06:00.577Z,99887.97
2019-03-29T10:08:43.871Z,99879.17
2019-03-29T10:11:16.432Z,99870.57
2019-03-29T10:13:50.182Z,99876.96
2019-03-29T10:16:25.937Z,99876.30
2019-03-29T10:18:58.961Z,99873.97
2019-03-29T10:21:34.056Z,99867.08
2019-03-29T10:24:12.252Z,99863.84
2019-03-29T10:26:45.738Z,99862.14
2019-03-29T10:29:18.343Z,99860.94
2019-03-29T10:31:51.362Z,99850.03
2019-03-29T10:34:33.092Z,99861.70
2019-03-29T10:37:05.903Z,99850.00
2019-03-29T10:39:43.545Z,99858.13
2019-03-29T10:42:16.941Z,99845.92
2019-03-29T10:44:51.008Z,99846.13
2019-03-29T10:47:42.070Z,99849.47
2019-03-29T10:50:03.560Z,99856.05
2019-03-29T10:52:36.542Z,99849.17
2019-03-29T10:55:12.075Z,99845.59
2019-03-29T10:57:44.998Z,99844.98
2019-03-29T11:00:39.506Z,99851.57
2019-03-29T11:03:12.895Z,99855.48
2019-03-29T11:05:52.077Z,99847.16
2019-03-29T11:08:26.015Z,99858.77
2019-03-29T11:10:59.272Z,99849.31
2019-03-29T11:13:31.914Z,99850.58
2019-03-29T11:16:04.992Z,99847.38
2019-03-29T11:18:38.105Z,99839.63
2019-03-29T11:21:11.221Z,99846.84
2019-03-29T11:23:43.821Z,99853.94
2019-03-29T11:26:19.728Z,99846.88
2019-03-29T11:28:52.981Z,99836.72
2019-03-29T11:31:25.960Z,99848.48
2019-03-29T11:33:58.680Z,99845.59
2019-03-29T11:36:33.148Z,99836.30
2019-03-29T11:39:07.342Z,99838.85
2019-03-29T11:41:42.790Z,99832.20
2019-03-29T11:44:18.575Z,99833.66
2019-03-29T11:47:00.131Z,99828.30
2019-03-29T11:49:33.513Z,99820.39
2019-03-29T11:52:06.222Z,99825.91
2019-03-29T11:54:39.964Z,99820.58
2019-03-29T11:57:20.249Z,99822.52
2019-03-29T11:59:53.091Z,99822.01
2019-03-29T12:02:31.574Z,99814.34
2019-03-29T12:05:01.601Z,99817.19
2019-03-29T12:07:37.167Z,99819.08
2019-03-29T12:10:10.483Z,99816.49
2019-03-29T12:12:54.357Z,99805.98
2019-03-29T12:15:27.407Z,99815.73
2019-03-29T12:18:00.718Z,99803.98
2019-03-29T12:20:33.579Z,99799.15
2019-03-29T12:23:06.619Z,99792.95
2019-03-29T12:25:39.397Z,99796.70
2019-03-29T12:28:15.523Z,99799.07
2019-03-29T12:30:49.278Z,99791.04
2019-03-29T12:33:25.165Z,99791.22
2019-03-29T12:35:57.891Z,99789.09
2019-03-29T12:38:36.937Z,99787.65
2019-03-29T12:41:10.040Z,99776.30
2019-03-29T12:43:55.701Z,99779.81
2019-03-29T12:46:27.281Z,99779.15
2019-03-29T12:49:00.695Z,99778.55
2019-03-29T12:51:33.499Z,99763.03
2019-03-29T12:54:12.037Z,99759.77
2019-03-29T12:56:47.896Z,99756.30
2019-03-29T12:59:24.127Z,99759.15
2019-03-29T13:01:57.003Z,99758.52
2019-03-29T13:04:29.924Z,99754.79
2019-03-29T13:07:03.506Z,99763.72
2019-03-29T13:09:41.162Z,99758.64
2019-03-29T13:12:14.230Z,99746.38
2019-03-29T13:14:46.721Z,99747.93
2019-03-29T13:17:19.431Z,99748.44
2019-03-29T13:20:03.566Z,99734.09
2019-03-29T13:22:36.741Z,99727.19
2019-03-29T13:25:12.529Z,99741.03
2019-03-29T13:27:45.227Z,99738.74
2019-03-29T13:30:21.382Z,99738.91
2019-03-29T13:32:54.995Z,99736.69
2019-03-29T13:35:34.209Z,99735.58
2019-03-29T13:38:08.126Z,99730.95
2019-03-29T13:40:43.930Z,99730.02
2019-03-29T13:43:17.177Z,99729.42
2019-03-29T13:45:54.120Z,99729.98
2019-03-29T13:48:27.167Z,99723.09
2019-03-29T13:51:00.014Z,99717.20
2019-03-29T13:53:33.154Z,99721.41
2019-03-29T13:56:30.688Z,99717.63
2019-03-29T13:59:03.894Z,99708.64
2019-03-29T14:01:38.289Z,99713.91
2019-03-29T14:04:11.053Z,99711.14
2019-03-29T14:06:44.139Z,99709.46
2019-03-29T14:09:16.838Z,99709.42
2019-03-29T14:11:51.300Z,99704.27
2019-03-29T14:14:37.649Z,99705.97
2019-03-29T14:17:00.444Z,99704.02
2019-03-29T14:19:34.001Z,99704.67
2019-03-29T14:22:07.020Z,99694.28
2019-03-29T14:24:39.576Z,99700.59
2019-03-29T14:27:18.504Z,99695.80
2019-03-29T14:30:03.524Z,99701.06
2019-03-29T14:32:26.916Z,99702.63
2019-03-29T14:34:59.919Z,99703.33
2019-03-29T14:37:40.507Z,99695.32
2019-03-29T14:40:15.882Z,99686.87
2019-03-29T14:42:50.219Z,99690.02
2019-03-29T14:45:23.181Z,99692.77
2019-03-29T14:48:04.675Z,99684.45
2019-03-29T14:50:37.718Z,99680.79
2019-03-29T14:53:14.593Z,99678.13
2019-03-29T14:55:47.445Z,99686.55
2019-03-29T14:58:23.436Z,99682.45
2019-03-29T15:00:55.921Z,99684.25
2019-03-29T15:03:32.993Z,99675.84
2019-03-29T15:06:06.444Z,99680.23
2019-03-29T15:08:42.000Z,99673.24
2019-03-29T15:11:22.197Z,99675.35
2019-03-29T15:13:49.341Z,99680.97
2019-03-29T15:16:23.342Z,99673.63
2019-03-29T15:18:56.405Z,99658.16
2019-03-29T15:21:29.341Z,99671.09
2019-03-29T15:24:09.235Z,99675.52
2019-03-29T15:26:42.081Z,99673.70
2019-03-29T15:29:18.299Z,99672.11
2019-03-29T15:31:56.229Z,99671.48
2019-03-29T15:34:31.765Z,99666.70
2019-03-29T15:37:05.428Z,99667.02
2019-03-29T15:39:44.385Z,99666.58
2019-03-29T15:42:20.337Z,99667.97
2019-03-29T15:44:51.424Z,99666.91
2019-03-29T15:47:24.148Z,99667.42
2019-03-29T15:50:13.322Z,99670.59
2019-03-29T15:52:45.964Z,99679.41
2019-03-29T15:55:19.156Z,99667.15
2019-03-29T15:57:52.502Z,99669.16
2019-03-29T16:00:25.207Z,99671.14
2019-03-29T16:02:57.670Z,99665.48
2019-03-29T16:05:30.283Z,99673.37
2019-03-29T16:08:03.535Z,99670.99
2019-03-29T16:10:46.345Z,99671.42
2019-03-29T16:13:19.112Z,99668.53
2019-03-29T16:15:54.662Z,99674.63
2019-03-29T16:18:27.361Z,99672.82
2019-03-29T16:21:00.798Z,99672.94
2019-03-29T16:23:34.776Z,99677.12
2019-03-29T16:26:17.050Z,99675.23
2019-03-29T16:28:50.877Z,99675.23
2019-03-29T16:31:26.781Z,99684.41
2019-03-29T16:34:00.102Z,99680.60
2019-03-29T16:36:38.954Z,99676.81
2019-03-29T16:39:12.382Z,99678.81
2019-03-29T16:41:45.049Z,99671.58
2019-03-29T16:44:19.187Z,99671.88
2019-03-29T16:46:52.374Z,99674.27
2019-03-29T16:49:26.187Z,99679.34
2019-03-29T16:52:14.153Z,99671.41
2019-03-29T16:54:46.919Z,99673.78
2019-03-29T16:57:20.113Z,99677.06
2019-03-29T16:59:52.750Z,99672.04
2019-03-29T17:02:25.842Z,99669.69
2019-03-29T17:04:58.664Z,99668.98
2019-03-29T17:07:40.340Z,99665.30
2019-03-29T17:10:13.112Z,99663.16
2019-03-29T17:12:52.118Z,99670.12
2019-03-29T17:15:24.078Z,99679.56
2019-03-29T17:17:57.229Z,99683.97
2019-03-29T17:20:30.522Z,99685.27
2019-03-29T17:23:11.498Z,99691.35
2019-03-29T17:25:44.516Z,99695.77
2019-03-29T17:28:17.792Z,99691.27
2019-03-29T17:31:02.166Z,99695.08
2019-03-29T17:33:35.115Z,99689.67
2019-03-29T17:36:07.900Z,99695.27
2019-03-29T17:38:42.114Z,99697.37
2019-03-29T17:41:15.205Z,99693.28
2019-03-29T17:43:51.034Z,99695.53
2019-03-29T17:46:26.592Z,99699.32
2019-03-29T17:48:59.331Z,99698.20
2019-03-29T17:51:32.410Z,99701.11
2019-03-29T17:54:16.795Z,99707.86
2019-03-29T17:56:49.724Z,99704.98
2019-03-29T17:59:25.706Z,99715.36
2019-03-29T18:02:09.297Z,99722.98
2019-03-29T18:04:34.327Z,99726.48
2019-03-29T18:07:08.052Z,99724.97
2019-03-29T18:09:41.022Z,99733.69
2019-03-29T18:12:14.150Z,99731.03
2019-03-29T18:14:57.367Z,99733.68
2019-03-29T18:17:30.096Z,99737.86
2019-03-29T18:20:02.910Z,99733.60
2019-03-29T18:22:35.905Z,99737.48
2019-03-29T18:25:09.634Z,99739.00
2019-03-29T18:27:42.684Z,99726.67
2019-03-29T18:30:37.669Z,99735.11
2019-03-29T18:33:10.279Z,99733.91
2019-03-29T18:35:43.182Z,99731.30
2019-03-29T18:38:17.388Z,99737.66
2019-03-29T18:40:49.972Z,99737.92
2019-03-29T18:43:23.235Z,99741.47
2019-03-29T18:45:56.332Z,99745.66
2019-03-29T18:48:29.741Z,99749.02
2019-03-29T18:51:04.135Z,99749.19
2019-03-29T18:53:38.421Z,99751.97
2019-03-29T18:56:12.003Z,99752.34
2019-03-29T18:58:45.327Z,99748.55
2019-03-29T19:01:25.744Z,99749.81
2019-03-29T19:03:58.780Z,99752.42
2019-03-29T19:06:32.065Z,99748.25
2019-03-29T19:09:05.790Z,99753.83
2019-03-29T19:11:45.413Z,99755.30
2019-03-29T19:14:18.725Z,99760.88
2019-03-29T19:16:59.832Z,99756.09
2019-03-29T19:19:32.709Z,99761.72
2019-03-29T19:22:07.416Z,99758.78
2019-03-29T19:24:40.231Z,99764.67
2019-03-29T19:27:16.356Z,99761.24
2019-03-29T19:29:49.611Z,99762.06
2019-03-29T19:32:27.275Z,99763.55
2019-03-29T19:35:01.775Z,99763.80
2019-03-29T19:37:38.247Z,99763.83
2019-03-29T19:40:12.292Z,99759.94
2019-03-29T19:42:49.155Z,99765.89
2019-03-29T19:45:22.242Z,99763.06
2019-03-29T19:47:58.989Z,99773.78
2019-03-29T19:50:32.014Z,99772.02
2019-03-29T19:53:08.157Z,99766.89
2019-03-29T19:55:41.687Z,99762.03
2019-03-29T19:58:18.143Z,99766.44
2019-03-29T20:00:52.068Z,99772.27
2019-03-29T20:03:29.393Z,99766.91
2019-03-29T20:06:02.026Z,99769.70
2019-03-29T20:08:42.380Z,99775.05
2019-03-29T20:11:15.139Z,99773.56
2019-03-29T20:13:50.691Z,99766.11
2019-03-29T20:16:23.304Z,99774.48
2019-03-29T20:19:04.064Z,99773.88
2019-03-29T20:21:36.903Z,99779.11
2019-03-29T20:24:13.051Z,99772.78
2019-03-29T20:26:45.883Z,99774.78
2019-03-29T20:29:19.078Z,99782.39
2019-03-29T20:31:51.660Z,99783.34
2019-03-29T20:34:32.330Z,99790.55
2019-03-29T20:37:08.932Z,99788.02
2019-03-29T20:39:41.381Z,99781.22
2019-03-29T20:42:14.471Z,99792.02
2019-03-29T20:44:50.723Z,99787.64
2019-03-29T20:47:23.360Z,99796.75
2019-03-29T20:50:07.303Z,99791.82
2019-03-29T20:52:40.026Z,99801.59
2019-03-29T20:55:16.599Z,99798.19
2019-03-29T20:57:49.612Z,99804.46
2019-03-29T21:00:27.061Z,99808.05
2019-03-29T21:02:59.817Z,99797.67
2019-03-29T21:05:32.680Z,99793.97
2019-03-29T21:08:05.484Z,99799.55
2019-03-29T21:10:54.954Z,99795.12
2019-03-29T21:13:17.061Z,99807.61
2019-03-29T21:15:53.846Z,99803.41
2019-03-29T21:18:26.614Z,99803.35
2019-03-29T21:21:02.385Z,99806.27
2019-03-29T21:23:35.129Z,99805.59
2019-03-29T21:26:07.869Z,99807.24
2019-03-29T21:28:41.341Z,99796.70
2019-03-29T21:31:14.164Z,99813.34
2019-03-29T21:33:46.991Z,99810.34
2019-03-29T21:36:19.617Z,99814.06
2019-03-29T21:38:54.098Z,99809.38
2019-03-29T21:41:47.460Z,99814.14
2019-03-29T21:44:20.864Z,99808.34
2019-03-29T21:46:55.052Z,99808.00
2019-03-29T21:49:28.009Z,99798.23
2019-03-29T21:52:00.797Z,99800.63
2019-03-29T21:54:33.557Z,99806.52
2019-03-29T21:57:06.493Z,99806.15
2019-03-29T21:59:39.167Z,99795.94
2019-03-29T22:02:12.161Z,99798.33
2019-03-29T22:04:44.702Z,99804.04
2019-03-29T22:07:17.255Z,99801.85
2019-03-29T22:09:50.606Z,99797.54
2019-03-29T22:12:23.987Z,99798.42
2019-03-29T22:14:56.920Z,99801.36
2019-03-29T22:17:29.755Z,99800.12
2019-03-29T22:20:21.301Z,99808.55
2019-03-29T22:22:54.102Z,99804.44
2019-03-29T22:25:26.971Z,99807.20
2019-03-29T22:27:59.863Z,99804.95
2019-03-29T22:30:32.645Z,99809.55
2019-03-29T22:33:05.361Z,99802.46
2019-03-29T22:35:39.039Z,99808.53
2019-03-29T22:38:12.126Z,99801.20
2019-03-29T22:40:45.269Z,99801.67
2019-03-29T22:43:18.313Z,99807.77
2019-03-29T22:45:51.126Z,99811.23
2019-03-29T22:48:23.915Z,99807.47
2019-03-29T22:51:22.391Z,99800.26
2019-03-29T22:53:55.201Z,99801.14
2019-03-29T22:56:27.832Z,99798.17
2019-03-29T22:59:00.339Z,99793.58
2019-03-29T23:01:35.925Z,99788.72
2019-03-29T23:04:08.361Z,99788.09
2019-03-29T23:06:40.812Z,99784.59
2019-03-29T23:09:13.776Z,99775.75
2019-03-29T23:11:47.565Z,99773.73
2019-03-29T23:14:20.321Z,99782.59
2019-03-29T23:16:53.107Z,99774.73
2019-03-29T23:19:26.062Z,99784.02
2019-03-29T23:21:58.681Z,99779.89
2019-03-29T23:24:31.305Z,99778.88
2019-03-29T23:27:04.041Z,99768.78
2019-03-29T23:29:36.611Z,99768.98
2019-03-29T23:32:10.439Z,99766.58
2019-03-29T23:34:43.108Z,99763.77
2019-03-29T23:37:15.565Z,99764.27
2019-03-29T23:39:48.119Z,99759.66
2019-03-29T23:42:21.156Z,99766.63
2019-03-29T23:44:53.556Z,99766.81
2019-03-29T23:47:26.433Z,99764.96
2019-03-29T23:49:59.788Z,99770.38
2019-03-29T23:52:32.335Z,99764.11
2019-03-29T23:55:04.957Z,99767.30
2019-03-29T23:57:37.878Z,99772.97
